createdAt,value
2023-05-04T00:00:39.907Z,8.724
2023-05-04T00:01:56.049Z,8.718
2023-05-04T00:02:39.063Z,8.670
2023-05-04T00:03:39.080Z,8.684
2023-05-04T00:04:38.926Z,8.661
2023-05-04T00:05:39.666Z,8.656
2023-05-04T00:06:39.250Z,8.642
2023-05-04T00:07:38.713Z,8.619
2023-05-04T00:08:39.009Z,8.609
2023-05-04T00:09:38.326Z,8.614
2023-05-04T00:10:38.922Z,8.623
2023-05-04T00:11:39.199Z,8.628
2023-05-04T00:12:38.481Z,8.616
2023-05-04T00:13:38.914Z,8.614
2023-05-04T00:14:39.230Z,8.601
2023-05-04T00:15:38.640Z,8.563
2023-05-04T00:16:38.542Z,8.564
2023-05-04T00:17:39.322Z,8.573
2023-05-04T00:18:38.689Z,8.581
2023-05-04T00:19:39.016Z,8.579
2023-05-04T00:20:38.418Z,8.579
2023-05-04T00:21:38.554Z,8.566
2023-05-04T00:22:38.719Z,8.553
2023-05-04T00:23:38.754Z,8.563
2023-05-04T00:24:38.949Z,8.550
2023-05-04T00:25:38.819Z,8.536
2023-05-04T00:26:39.051Z,8.520
2023-05-04T00:27:38.607Z,8.503
2023-05-04T00:28:39.448Z,8.489
2023-05-04T00:29:39.109Z,8.466
2023-05-04T00:30:38.727Z,8.454
2023-05-04T00:31:38.801Z,8.433
2023-05-04T00:32:39.237Z,8.426
2023-05-04T00:33:38.473Z,8.391
2023-05-04T00:34:38.548Z,8.375
2023-05-04T00:35:38.944Z,8.359
2023-05-04T00:36:39.198Z,8.321
2023-05-04T00:37:38.927Z,8.296
2023-05-04T00:38:38.898Z,8.25
2023-05-04T00:39:39.079Z,8.218
2023-05-04T00:40:38.978Z,8.236
2023-05-04T00:41:38.925Z,8.239
2023-05-04T00:42:39.193Z,8.234
2023-05-04T00:43:38.457Z,8.201
2023-05-04T00:44:39.224Z,8.191
2023-05-04T00:45:39.053Z,8.178
2023-05-04T00:46:38.744Z,8.176
2023-05-04T00:47:39.437Z,8.196
2023-05-04T00:48:39.091Z,8.163
2023-05-04T00:49:38.683Z,8.170
2023-05-04T00:50:39.254Z,8.153
2023-05-04T00:51:39.111Z,8.079
2023-05-04T00:52:38.990Z,8.038
2023-05-04T00:53:38.548Z,8.050
2023-05-04T00:54:38.843Z,8.060
2023-05-04T00:55:38.915Z,8.068
2023-05-04T00:56:38.973Z,8.063
2023-05-04T00:57:39.347Z,8.058
2023-05-04T00:58:38.571Z,8.051
2023-05-04T00:59:39.140Z,8.023
2023-05-04T01:00:39.468Z,8.001
2023-05-04T01:01:38.912Z,7.988
2023-05-04T01:02:39.194Z,7.949
2023-05-04T01:03:39.060Z,7.916
2023-05-04T01:04:38.624Z,7.914
2023-05-04T01:05:38.993Z,7.903
2023-05-04T01:06:38.617Z,7.886
2023-05-04T01:07:38.891Z,7.876
2023-05-04T01:08:39.034Z,7.876
2023-05-04T01:09:38.231Z,7.893
2023-05-04T01:10:38.890Z,7.885
2023-05-04T01:11:39.011Z,7.875
2023-05-04T01:12:38.386Z,7.873
2023-05-04T01:13:38.830Z,7.900
2023-05-04T01:14:38.934Z,7.905
2023-05-04T01:15:39.298Z,7.914
2023-05-04T01:16:38.803Z,7.921
2023-05-04T01:17:39.439Z,7.923
2023-05-04T01:18:38.934Z,7.934
2023-05-04T01:19:39.254Z,7.938
2023-05-04T01:20:38.917Z,7.934
2023-05-04T01:21:39.532Z,7.858
2023-05-04T01:22:38.876Z,7.829
2023-05-04T01:23:38.935Z,7.820
2023-05-04T01:24:39.348Z,7.793
2023-05-04T01:25:38.651Z,7.776
2023-05-04T01:26:39.162Z,7.751
2023-05-04T01:27:38.869Z,7.714
2023-05-04T01:28:38.972Z,7.682
2023-05-04T01:29:38.981Z,7.671
2023-05-04T01:30:38.993Z,7.655
2023-05-04T01:31:38.949Z,7.624
2023-05-04T01:32:38.421Z,7.619
2023-05-04T01:33:38.661Z,7.610
2023-05-04T01:34:38.739Z,7.612
2023-05-04T01:35:38.343Z,7.610
2023-05-04T01:36:38.474Z,7.590
2023-05-04T01:37:38.414Z,7.590
2023-05-04T01:38:38.343Z,7.582
2023-05-04T01:39:38.354Z,7.581
2023-05-04T01:40:38.558Z,7.579
2023-05-04T01:41:38.588Z,7.564
2023-05-04T01:42:38.689Z,7.555
2023-05-04T01:43:38.434Z,7.547
2023-05-04T01:44:38.476Z,7.536
2023-05-04T01:45:38.765Z,7.538
2023-05-04T01:46:39.301Z,7.547
2023-05-04T01:47:38.611Z,7.530
2023-05-04T01:48:38.578Z,7.521
2023-05-04T01:49:38.776Z,7.553
2023-05-04T01:50:39.189Z,7.561
2023-05-04T01:51:38.552Z,7.536
2023-05-04T01:52:38.915Z,7.516
2023-05-04T01:53:38.614Z,7.469
2023-05-04T01:54:38.690Z,7.468
2023-05-04T01:55:39.165Z,7.473
2023-05-04T01:56:38.833Z,7.449
2023-05-04T01:57:38.878Z,7.446
2023-05-04T01:58:38.956Z,7.453
2023-05-04T01:59:38.945Z,7.434
2023-05-04T02:00:40.089Z,7.418
2023-05-04T02:01:38.752Z,7.408
2023-05-04T02:02:38.749Z,7.405
2023-05-04T02:03:38.968Z,7.401
2023-05-04T02:04:38.717Z,7.394
2023-05-04T02:05:38.850Z,7.405
2023-05-04T02:06:38.907Z,7.369
2023-05-04T02:07:39.195Z,7.368
2023-05-04T02:08:38.248Z,7.346
2023-05-04T02:09:38.590Z,7.353
2023-05-04T02:10:38.926Z,7.344
2023-05-04T02:11:38.770Z,7.328
2023-05-04T02:12:38.949Z,7.344
2023-05-04T02:13:38.931Z,7.335
2023-05-04T02:14:38.831Z,7.329
2023-05-04T02:15:39.571Z,7.351
2023-05-04T02:16:39.075Z,7.329
2023-05-04T02:17:38.703Z,7.306
2023-05-04T02:18:52.811Z,7.308
2023-05-04T02:19:38.987Z,7.298
2023-05-04T02:20:38.298Z,7.308
2023-05-04T02:21:38.750Z,7.320
2023-05-04T02:22:38.827Z,7.298
2023-05-04T02:23:38.862Z,7.298
2023-05-04T02:24:39.126Z,7.280
2023-05-04T02:25:38.617Z,7.280
2023-05-04T02:26:38.862Z,7.273
2023-05-04T02:27:38.819Z,7.316
2023-05-04T02:28:39.133Z,7.335
2023-05-04T02:29:38.294Z,7.323
2023-05-04T02:30:38.688Z,7.306
2023-05-04T02:31:38.715Z,7.304
2023-05-04T02:32:39.032Z,7.248
2023-05-04T02:33:38.287Z,7.223
2023-05-04T02:34:38.540Z,7.233
2023-05-04T02:35:38.766Z,7.215
2023-05-04T02:36:38.582Z,7.204
2023-05-04T02:37:38.600Z,7.204
2023-05-04T02:38:38.803Z,7.210
2023-05-04T02:39:38.981Z,7.184
2023-05-04T02:40:38.589Z,7.203
2023-05-04T02:41:38.782Z,7.221
2023-05-04T02:42:38.871Z,7.221
2023-05-04T02:43:38.864Z,7.216
2023-05-04T02:44:39.179Z,7.208
2023-05-04T02:45:38.866Z,7.199
2023-05-04T02:47:01.249Z,7.219
2023-05-04T02:47:38.802Z,7.204
2023-05-04T02:48:39.559Z,7.199
2023-05-04T02:49:39.035Z,7.179
2023-05-04T02:50:38.375Z,7.208
2023-05-04T02:51:39.277Z,7.196
2023-05-04T02:52:38.746Z,7.163
2023-05-04T02:53:38.897Z,7.165
2023-05-04T02:54:39.260Z,7.175
2023-05-04T02:55:38.906Z,7.161
2023-05-04T02:57:10.375Z,7.155
2023-05-04T02:57:41.933Z,7.156
2023-05-04T02:58:38.981Z,7.137
2023-05-04T02:59:38.152Z,7.124
2023-05-04T03:00:39.713Z,7.099
2023-05-04T03:01:38.734Z,7.105
2023-05-04T03:02:39.046Z,7.081
2023-05-04T03:03:38.363Z,7.056
2023-05-04T03:04:39.070Z,7.052
2023-05-04T03:05:38.634Z,7.052
2023-05-04T03:06:38.744Z,7.062
2023-05-04T03:07:39.125Z,7.052
2023-05-04T03:08:38.316Z,7.015
2023-05-04T03:09:38.578Z,7.010
2023-05-04T03:10:39.068Z,6.987
2023-05-04T03:11:38.461Z,6.958
2023-05-04T03:12:38.955Z,6.945
2023-05-04T03:13:38.290Z,6.941
2023-05-04T03:14:38.692Z,6.949
2023-05-04T03:15:39.630Z,6.953
2023-05-04T03:16:39.736Z,6.967
2023-05-04T03:17:39.506Z,6.978
2023-05-04T03:19:38.311Z,6.971
2023-05-04T03:19:43.478Z,6.981
2023-05-04T03:20:38.852Z,6.966
2023-05-04T03:21:38.830Z,6.980
2023-05-04T03:22:38.735Z,6.951
2023-05-04T03:23:38.715Z,6.956
2023-05-04T03:24:38.592Z,6.973
2023-05-04T03:25:38.741Z,6.985
2023-05-04T03:26:38.742Z,6.981
2023-05-04T03:27:38.670Z,6.963
2023-05-04T03:28:38.576Z,6.971
2023-05-04T03:29:38.532Z,6.980
2023-05-04T03:30:38.874Z,6.993
2023-05-04T03:31:39.035Z,6.976
2023-05-04T03:32:38.234Z,6.969
2023-05-04T03:33:38.533Z,6.934
2023-05-04T03:34:38.857Z,6.898
2023-05-04T03:35:40.376Z,6.881
2023-05-04T03:36:38.448Z,6.860
2023-05-04T03:37:38.498Z,6.855
2023-05-04T03:38:38.709Z,6.853
2023-05-04T03:39:39.014Z,6.835
2023-05-04T03:40:38.464Z,6.841
2023-05-04T03:41:38.889Z,6.824
2023-05-04T03:42:39.090Z,6.824
2023-05-04T03:43:38.267Z,6.813
2023-05-04T03:44:38.396Z,6.828
2023-05-04T03:45:39.287Z,6.848
2023-05-04T03:46:38.974Z,6.821
2023-05-04T03:47:38.279Z,6.828
2023-05-04T03:48:38.586Z,6.821
2023-05-04T03:49:43.733Z,6.823
2023-05-04T03:50:39.252Z,6.815
2023-05-04T03:51:38.660Z,6.806
2023-05-04T03:52:39.204Z,6.793
2023-05-04T03:53:38.764Z,6.796
2023-05-04T03:54:39.490Z,6.811
2023-05-04T03:55:39.652Z,6.813
2023-05-04T03:56:39.305Z,6.801
2023-05-04T03:57:38.916Z,6.801
2023-05-04T03:58:39.347Z,6.784
2023-05-04T03:59:38.841Z,6.771
2023-05-04T04:00:40.147Z,6.735
2023-05-04T04:01:38.980Z,6.731
2023-05-04T04:02:38.774Z,6.716
2023-05-04T04:03:39.199Z,6.711
2023-05-04T04:04:38.944Z,6.716
2023-05-04T04:05:38.819Z,6.695
2023-05-04T04:06:41.405Z,6.671
2023-05-04T04:07:39.148Z,6.678
2023-05-04T04:08:38.896Z,6.686
2023-05-04T04:09:39.534Z,6.696
2023-05-04T04:10:39.275Z,6.721
2023-05-04T04:11:38.991Z,6.736
2023-05-04T04:12:39.154Z,6.743
2023-05-04T04:13:38.601Z,6.760
2023-05-04T04:14:39.343Z,6.748
2023-05-04T04:15:39.319Z,6.738
2023-05-04T04:16:38.906Z,6.711
2023-05-04T04:17:38.562Z,6.715
2023-05-04T04:18:38.963Z,6.718
2023-05-04T04:19:39.534Z,6.711
2023-05-04T04:20:38.982Z,6.724
2023-05-04T04:21:38.555Z,6.730
2023-05-04T04:22:38.964Z,6.744
2023-05-04T04:23:39.157Z,6.748
2023-05-04T04:24:38.768Z,6.751
2023-05-04T04:25:39.813Z,6.739
2023-05-04T04:26:39.724Z,6.739
2023-05-04T04:27:44.244Z,6.715
2023-05-04T04:28:38.633Z,6.690
2023-05-04T04:29:44.209Z,6.698
2023-05-04T04:30:39.371Z,6.701
2023-05-04T04:31:39.087Z,6.708
2023-05-04T04:32:38.833Z,6.707
2023-05-04T04:33:39.437Z,6.703
2023-05-04T04:34:38.983Z,6.724
2023-05-04T04:35:38.964Z,6.722
2023-05-04T04:36:38.945Z,6.735
2023-05-04T04:37:39.263Z,6.751
2023-05-04T04:38:38.925Z,6.744
2023-05-04T04:39:39.415Z,6.728
2023-05-04T04:40:39.439Z,6.731
2023-05-04T04:41:39.191Z,6.739
2023-05-04T04:42:38.963Z,6.751
2023-05-04T04:43:39.261Z,6.768
2023-05-04T04:44:38.872Z,6.755
2023-05-04T04:45:39.782Z,6.774
2023-05-04T04:46:39.310Z,6.778
2023-05-04T04:47:53.386Z,6.794
2023-05-04T04:48:39.235Z,6.817
2023-05-04T04:49:39.318Z,6.831
2023-05-04T04:50:39.577Z,6.828
2023-05-04T04:51:39.449Z,6.826
2023-05-04T04:52:39.698Z,6.834
2023-05-04T04:53:39.747Z,6.811
2023-05-04T04:54:39.188Z,6.812
2023-05-04T04:55:39.325Z,6.826
2023-05-04T04:56:39.061Z,6.851
2023-05-04T04:57:38.916Z,6.876
2023-05-04T04:58:39.589Z,6.885
2023-05-04T04:59:39.461Z,6.900
2023-05-04T05:00:40.836Z,6.908
2023-05-04T05:01:39.988Z,6.928
2023-05-04T05:02:39.299Z,6.923
2023-05-04T05:03:39.064Z,6.928
2023-05-04T05:04:39.171Z,6.926
2023-05-04T05:05:39.223Z,6.943
2023-05-04T05:06:38.744Z,6.966
2023-05-04T05:07:39.567Z,6.989
2023-05-04T05:08:39.377Z,7.003
2023-05-04T05:09:39.219Z,7.003
2023-05-04T05:10:40.120Z,7.033
2023-05-04T05:11:39.227Z,7.018
2023-05-04T05:12:38.824Z,7.014
2023-05-04T05:13:39.710Z,7.031
2023-05-04T05:14:39.749Z,7.054
2023-05-04T05:15:39.839Z,7.090
2023-05-04T05:16:39.835Z,7.098
2023-05-04T05:17:39.663Z,7.105
2023-05-04T05:18:39.398Z,7.135
2023-05-04T05:19:40.311Z,7.138
2023-05-04T05:20:39.065Z,7.173
2023-05-04T05:21:38.908Z,7.195
2023-05-04T05:22:39.606Z,7.208
2023-05-04T05:23:39.262Z,7.231
2023-05-04T05:24:39.160Z,7.255
2023-05-04T05:25:39.360Z,7.286
2023-05-04T05:26:39.246Z,7.291
2023-05-04T05:27:39.085Z,7.303
2023-05-04T05:28:38.738Z,7.344
2023-05-04T05:29:39.255Z,7.348
2023-05-04T05:30:40.166Z,7.396
2023-05-04T05:31:39.437Z,7.468
2023-05-04T05:32:39.491Z,7.528
2023-05-04T05:33:39.681Z,7.554
2023-05-04T05:34:39.166Z,7.574
2023-05-04T05:35:39.440Z,7.608
2023-05-04T05:36:39.138Z,7.633
2023-05-04T05:37:38.946Z,7.641
2023-05-04T05:38:39.868Z,7.656
2023-05-04T05:39:39.874Z,7.679
2023-05-04T05:40:39.705Z,7.718
2023-05-04T05:41:39.330Z,7.719
2023-05-04T05:42:38.811Z,7.723
2023-05-04T05:43:39.520Z,7.735
2023-05-04T05:44:39.280Z,7.746
2023-05-04T05:45:39.448Z,7.778
2023-05-04T05:46:39.539Z,7.813
2023-05-04T05:47:39.986Z,7.866
2023-05-04T05:48:38.661Z,7.903
2023-05-04T05:49:39.697Z,7.933
2023-05-04T05:50:39.677Z,7.956
2023-05-04T05:51:39.852Z,7.971
2023-05-04T05:52:39.427Z,7.998
2023-05-04T05:53:39.062Z,8.013
2023-05-04T05:54:38.836Z,8.053
2023-05-04T05:55:39.828Z,8.071
2023-05-04T05:56:39.502Z,8.090
2023-05-04T05:57:39.330Z,8.118
2023-05-04T05:58:39.405Z,8.145
2023-05-04T05:59:39.404Z,8.199
2023-05-04T06:00:40.522Z,8.231
2023-05-04T06:01:39.745Z,8.270
2023-05-04T06:02:39.660Z,8.319
2023-05-04T06:03:39.561Z,8.354
2023-05-04T06:04:39.686Z,8.381
2023-05-04T06:05:39.796Z,8.428
2023-05-04T06:06:39.622Z,8.458
2023-05-04T06:07:39.536Z,8.491
2023-05-04T06:08:39.619Z,8.531
2023-05-04T06:09:39.385Z,8.578
2023-05-04T06:10:39.393Z,8.622
2023-05-04T06:11:41.500Z,8.680
2023-05-04T06:12:39.209Z,8.722
2023-05-04T06:13:38.946Z,8.772
2023-05-04T06:14:39.445Z,8.824
2023-05-04T06:15:39.444Z,8.894
2023-05-04T06:16:39.604Z,9.015
2023-05-04T06:17:39.708Z,9.109
2023-05-04T06:18:39.442Z,9.189
2023-05-04T06:19:39.402Z,9.260
2023-05-04T06:20:39.643Z,9.319
2023-05-04T06:21:40.026Z,9.352
2023-05-04T06:22:39.019Z,9.371
2023-05-04T06:23:38.890Z,9.425
2023-05-04T06:24:39.535Z,9.515
2023-05-04T06:25:39.310Z,9.586
2023-05-04T06:26:39.370Z,9.617
2023-05-04T06:27:39.742Z,9.631
2023-05-04T06:28:39.292Z,9.710
2023-05-04T06:29:38.903Z,9.770
2023-05-04T06:30:39.981Z,9.814
2023-05-04T06:31:39.321Z,9.868
2023-05-04T06:32:39.382Z,9.920
2023-05-04T06:33:39.107Z,9.973
2023-05-04T06:34:38.642Z,10.02
2023-05-04T06:35:39.726Z,10.05
2023-05-04T06:36:39.150Z,10.07
2023-05-04T06:37:38.962Z,10.10
2023-05-04T06:38:39.584Z,10.11
2023-05-04T06:39:39.429Z,10.12
2023-05-04T06:40:39.524Z,10.16
2023-05-04T06:41:39.393Z,10.19
2023-05-04T06:42:39.098Z,10.23
2023-05-04T06:43:38.940Z,10.25
2023-05-04T06:44:39.483Z,10.33
2023-05-04T06:45:39.512Z,10.32
2023-05-04T06:46:39.443Z,10.32
2023-05-04T06:47:39.909Z,10.39
2023-05-04T06:48:40.126Z,10.46
2023-05-04T06:49:38.950Z,10.57
2023-05-04T06:50:39.750Z,10.68
2023-05-04T06:51:39.533Z,10.71
2023-05-04T06:52:39.085Z,10.77
2023-05-04T06:53:38.933Z,10.82
2023-05-04T06:54:44.778Z,10.86
2023-05-04T06:55:39.694Z,10.89
2023-05-04T06:56:39.562Z,10.97
2023-05-04T06:57:39.625Z,11.03
2023-05-04T06:58:44.254Z,11.07
2023-05-04T06:59:39.197Z,11.09
2023-05-04T07:00:44.910Z,11.12
2023-05-04T07:01:39.984Z,11.17
2023-05-04T07:02:39.074Z,11.28
2023-05-04T07:03:39.239Z,11.35
2023-05-04T07:04:39.408Z,11.39
2023-05-04T07:05:39.535Z,11.40
2023-05-04T07:07:02.293Z,11.41
2023-05-04T07:07:39.901Z,11.41
2023-05-04T07:09:11.089Z,11.41
2023-05-04T07:09:43.483Z,11.43
2023-05-04T07:10:39.642Z,11.48
2023-05-04T07:11:39.611Z,11.51
2023-05-04T07:12:39.711Z,11.56
2023-05-04T07:13:40.038Z,11.63
2023-05-04T07:14:40.174Z,11.64
2023-05-04T07:15:39.929Z,11.65
2023-05-04T07:16:40.134Z,11.66
2023-05-04T07:17:39.138Z,11.66
2023-05-04T07:18:39.408Z,11.69
2023-05-04T07:19:39.165Z,11.77
2023-05-04T07:20:41.883Z,11.82
2023-05-04T07:21:44.691Z,11.81
2023-05-04T07:22:53.685Z,11.88
2023-05-04T07:23:39.435Z,11.93
2023-05-04T07:24:39.679Z,11.92
2023-05-04T07:25:39.552Z,11.92
2023-05-04T07:26:58.318Z,11.93
2023-05-04T07:27:39.081Z,11.99
2023-05-04T07:28:39.134Z,12.01
2023-05-04T07:29:38.790Z,12.03
2023-05-04T07:30:40.230Z,12.08
2023-05-04T07:31:39.101Z,12.14
2023-05-04T07:32:39.074Z,12.21
2023-05-04T07:33:38.867Z,12.29
2023-05-04T07:35:02.734Z,12.31
2023-05-04T07:35:40.459Z,12.39
2023-05-04T07:36:58.726Z,12.42
2023-05-04T07:37:39.734Z,12.46
2023-05-04T07:38:39.417Z,12.56
2023-05-04T07:39:38.957Z,12.66
2023-05-04T07:41:01.498Z,12.69
2023-05-04T07:41:39.202Z,12.68
2023-05-04T07:42:38.783Z,12.66
2023-05-04T07:43:39.766Z,12.77
2023-05-04T07:44:39.384Z,12.82
2023-05-04T07:45:39.539Z,12.86
2023-05-04T07:46:39.636Z,12.93
2023-05-04T07:47:40.134Z,12.97
2023-05-04T07:48:41.834Z,13.11
2023-05-04T07:49:39.910Z,13.15
2023-05-04T07:50:40.060Z,13.15
2023-05-04T07:51:39.167Z,13.14
2023-05-04T07:52:39.089Z,13.11
2023-05-04T07:53:38.970Z,13.08
2023-05-04T07:54:38.798Z,13.10
2023-05-04T07:55:39.643Z,13.21
2023-05-04T07:56:39.455Z,13.21
2023-05-04T07:57:39.690Z,13.21
2023-05-04T07:58:39.644Z,13.21
2023-05-04T07:59:39.537Z,13.27
2023-05-04T08:00:40.911Z,13.32
2023-05-04T08:01:41.286Z,13.32
2023-05-04T08:02:39.657Z,13.38
2023-05-04T08:03:39.590Z,13.36
2023-05-04T08:04:39.792Z,13.38
2023-05-04T08:05:40.448Z,13.39
2023-05-04T08:06:39.547Z,13.44
2023-05-04T08:07:39.240Z,13.54
2023-05-04T08:08:40.277Z,13.63
2023-05-04T08:09:39.073Z,13.68
2023-05-04T08:10:39.455Z,13.68
2023-05-04T08:11:39.251Z,13.69
2023-05-04T08:12:39.247Z,13.71
2023-05-04T08:13:39.207Z,13.74
2023-05-04T08:14:38.972Z,13.74
2023-05-04T08:15:39.065Z,13.79
2023-05-04T08:16:39.051Z,13.85
2023-05-04T08:17:39.359Z,13.90
2023-05-04T08:18:39.145Z,13.93
2023-05-04T08:19:39.128Z,13.96
2023-05-04T08:20:39.469Z,14.03
2023-05-04T08:21:39.197Z,14.09
2023-05-04T08:22:38.940Z,14.14
2023-05-04T08:23:39.712Z,14.26
2023-05-04T08:24:39.085Z,14.34
2023-05-04T08:25:39.353Z,14.41
2023-05-04T08:26:39.130Z,14.44
2023-05-04T08:27:38.919Z,14.39
2023-05-04T08:28:39.610Z,14.36
2023-05-04T08:29:39.494Z,14.39
2023-05-04T08:30:39.991Z,14.42
2023-05-04T08:31:38.872Z,14.47
2023-05-04T08:32:39.707Z,14.46
2023-05-04T08:33:39.583Z,14.48
2023-05-04T08:34:39.171Z,14.52
2023-05-04T08:35:38.980Z,14.58
2023-05-04T08:36:38.899Z,14.65
2023-05-04T08:37:39.508Z,14.65
2023-05-04T08:38:39.427Z,14.67
2023-05-04T08:39:41.820Z,14.76
2023-05-04T08:40:39.207Z,14.77
2023-05-04T08:41:38.972Z,14.83
2023-05-04T08:42:39.729Z,14.83
2023-05-04T08:43:39.277Z,14.86
2023-05-04T08:44:39.004Z,14.92
2023-05-04T08:45:39.749Z,14.98
2023-05-04T08:46:39.606Z,14.96
2023-05-04T08:47:39.647Z,14.97
2023-05-04T08:48:39.719Z,14.98
2023-05-04T08:49:39.892Z,15.00
2023-05-04T08:50:39.901Z,15.07
2023-05-04T08:51:39.739Z,15.13
2023-05-04T08:52:39.748Z,15.24
2023-05-04T08:53:47.528Z,15.31
2023-05-04T08:54:39.530Z,15.36
2023-05-04T08:55:39.787Z,15.42
2023-05-04T08:56:39.633Z,15.42
2023-05-04T08:57:39.559Z,15.39
2023-05-04T08:58:39.373Z,15.46
2023-05-04T08:59:39.378Z,15.49
2023-05-04T09:00:39.815Z,15.60
2023-05-04T09:01:53.665Z,15.63
2023-05-04T09:02:39.735Z,15.72
2023-05-04T09:03:39.788Z,15.75
2023-05-04T09:04:40.711Z,15.76
2023-05-04T09:05:39.611Z,15.80
2023-05-04T09:06:39.580Z,15.86
2023-05-04T09:07:53.232Z,15.92
2023-05-04T09:08:38.969Z,15.96
2023-05-04T09:09:39.609Z,16.00
2023-05-04T09:10:39.554Z,16.05
2023-05-04T09:11:39.332Z,16.09
2023-05-04T09:12:39.300Z,16.11
2023-05-04T09:13:39.030Z,16.10
2023-05-04T09:14:38.726Z,16.18
2023-05-04T09:15:39.462Z,16.20
2023-05-04T09:16:39.208Z,16.26
2023-05-04T09:17:50.848Z,16.30
2023-05-04T09:18:39.697Z,16.35
2023-05-04T09:19:39.500Z,16.38
2023-05-04T09:20:39.393Z,16.41
2023-05-04T09:21:39.385Z,16.5
2023-05-04T09:22:39.163Z,16.60
2023-05-04T09:23:39.249Z,16.71
2023-05-04T09:24:39.311Z,16.94
2023-05-04T09:25:39.324Z,17.06
2023-05-04T09:26:38.971Z,17.11
2023-05-04T09:27:39.441Z,17.19
2023-05-04T09:28:39.253Z,17.27
2023-05-04T09:29:39.279Z,17.28
2023-05-04T09:30:39.753Z,17.32
2023-05-04T09:31:39.703Z,17.35
2023-05-04T09:32:39.670Z,17.42
2023-05-04T09:33:39.275Z,17.47
2023-05-04T09:34:38.843Z,17.53
2023-05-04T09:35:49.078Z,17.65
2023-05-04T09:36:39.019Z,17.65
2023-05-04T09:37:39.219Z,17.62
2023-05-04T09:38:39.150Z,17.64
2023-05-04T09:39:39.000Z,17.68
2023-05-04T09:40:39.028Z,17.74
2023-05-04T09:41:38.804Z,17.79
2023-05-04T09:42:39.315Z,17.84
2023-05-04T09:43:53.438Z,17.88
2023-05-04T09:44:39.201Z,17.92
2023-05-04T09:45:53.511Z,17.97
2023-05-04T09:46:40.009Z,18.02
2023-05-04T09:47:39.319Z,18.00
2023-05-04T09:48:39.505Z,18.02
2023-05-04T09:49:39.524Z,18.02
2023-05-04T09:50:40.048Z,18.04
2023-05-04T09:51:39.364Z,18.10
2023-05-04T09:52:39.320Z,18.12
2023-05-04T09:53:39.490Z,18.17
2023-05-04T09:54:39.488Z,18.16
2023-05-04T09:55:39.795Z,18.12
2023-05-04T09:56:39.749Z,18.19
2023-05-04T09:57:39.720Z,18.25
2023-05-04T09:58:39.603Z,18.32
2023-05-04T09:59:39.414Z,18.30
2023-05-04T10:00:40.359Z,18.37
2023-05-04T10:01:39.134Z,18.49
2023-05-04T10:02:39.552Z,18.55
2023-05-04T10:04:01.527Z,18.60
2023-05-04T10:04:39.430Z,18.57
2023-05-04T10:05:39.828Z,18.45
2023-05-04T10:06:39.683Z,18.39
2023-05-04T10:07:41.019Z,18.37
2023-05-04T10:08:39.378Z,18.53
2023-05-04T10:09:39.124Z,18.66
2023-05-04T10:10:39.140Z,18.77
2023-05-04T10:11:39.213Z,18.75
2023-05-04T10:12:39.393Z,18.72
2023-05-04T10:13:39.351Z,18.82
2023-05-04T10:14:39.650Z,18.83
2023-05-04T10:16:11.173Z,18.87
2023-05-04T10:16:43.531Z,18.88
2023-05-04T10:17:39.485Z,18.92
2023-05-04T10:18:39.587Z,18.92
2023-05-04T10:19:39.859Z,18.93
2023-05-04T10:20:40.117Z,18.91
2023-05-04T10:22:39.274Z,18.99
2023-05-04T10:23:39.490Z,19.03
2023-05-04T10:24:39.159Z,19.09
2023-05-04T10:25:39.232Z,19.11
2023-05-04T10:26:38.861Z,19.15
2023-05-04T10:27:39.491Z,19.19
2023-05-04T10:28:39.373Z,19.20
2023-05-04T10:29:39.435Z,19.18
2023-05-04T10:30:39.468Z,19.19
2023-05-04T10:31:39.081Z,19.17
2023-05-04T10:32:38.992Z,19.14
2023-05-04T10:33:38.867Z,19.20
2023-05-04T10:34:39.649Z,19.22
2023-05-04T10:35:39.690Z,19.26
2023-05-04T10:36:39.402Z,19.30
2023-05-04T10:37:38.980Z,19.32
2023-05-04T10:38:38.857Z,19.33
2023-05-04T10:39:40.008Z,19.34
2023-05-04T10:40:39.267Z,19.34
2023-05-04T10:41:39.074Z,19.38
2023-05-04T10:42:39.531Z,19.42
2023-05-04T10:43:40.145Z,19.47
2023-05-04T10:44:39.232Z,19.46
2023-05-04T10:45:39.491Z,19.47
2023-05-04T10:46:39.506Z,19.45
2023-05-04T10:47:39.137Z,19.40
2023-05-04T10:48:39.098Z,19.42
2023-05-04T10:49:39.364Z,19.43
2023-05-04T10:50:39.788Z,19.45
2023-05-04T10:51:49.675Z,19.51
2023-05-04T10:52:39.920Z,19.56
2023-05-04T10:53:40.192Z,19.60
2023-05-04T10:54:39.269Z,19.61
2023-05-04T10:55:39.701Z,19.61
2023-05-04T10:56:39.698Z,19.60
2023-05-04T10:57:39.764Z,19.69
2023-05-04T10:58:39.792Z,19.72
2023-05-04T10:59:39.613Z,19.76
2023-05-04T11:00:40.481Z,19.77
2023-05-04T11:01:39.513Z,19.74
2023-05-04T11:02:39.739Z,19.73
2023-05-04T11:03:39.945Z,19.78
2023-05-04T11:04:38.949Z,19.78
2023-05-04T11:05:39.584Z,19.79
2023-05-04T11:06:39.815Z,19.81
2023-05-04T11:07:39.413Z,19.85
2023-05-04T11:08:39.593Z,19.90
2023-05-04T11:09:39.440Z,19.95
2023-05-04T11:10:39.279Z,19.97
2023-05-04T11:11:39.117Z,19.99
2023-05-04T11:12:44.095Z,20.04
2023-05-04T11:13:39.263Z,20.08
2023-05-04T11:14:39.258Z,20.06
2023-05-04T11:15:39.248Z,20.10
2023-05-04T11:16:39.625Z,20.08
2023-05-04T11:17:44.162Z,20.07
2023-05-04T11:18:47.410Z,20.06
2023-05-04T11:19:39.023Z,20.04
2023-05-04T11:20:39.000Z,20.09
2023-05-04T11:21:39.196Z,20.17
2023-05-04T11:22:39.570Z,20.18
2023-05-04T11:23:39.623Z,20.21
2023-05-04T11:24:39.546Z,20.27
2023-05-04T11:25:40.126Z,20.29
2023-05-04T11:26:39.128Z,20.29
2023-05-04T11:27:39.069Z,20.31
2023-05-04T11:28:39.167Z,20.32
2023-05-04T11:29:39.153Z,20.37
2023-05-04T11:30:39.828Z,20.44
2023-05-04T11:31:39.785Z,20.45
2023-05-04T11:32:53.834Z,20.46
2023-05-04T11:33:39.565Z,20.46
2023-05-04T11:34:39.496Z,20.5
2023-05-04T11:35:39.505Z,20.50
2023-05-04T11:36:39.603Z,20.52
2023-05-04T11:37:39.279Z,20.54
2023-05-04T11:38:39.290Z,20.54
2023-05-04T11:39:39.127Z,20.55
2023-05-04T11:40:39.399Z,20.56
2023-05-04T11:41:39.308Z,20.60
2023-05-04T11:42:44.254Z,20.61
2023-05-04T11:43:39.208Z,20.58
2023-05-04T11:44:44.159Z,20.59
2023-05-04T11:45:39.461Z,20.64
2023-05-04T11:46:44.348Z,20.61
2023-05-04T11:47:39.462Z,20.62
2023-05-04T11:48:39.694Z,20.64
2023-05-04T11:49:39.429Z,20.65
2023-05-04T11:50:39.662Z,20.69
2023-05-04T11:51:39.717Z,20.74
2023-05-04T11:52:39.636Z,20.79
2023-05-04T11:53:39.658Z,20.83
2023-05-04T11:54:39.722Z,20.83
2023-05-04T11:55:39.472Z,20.81
2023-05-04T11:56:47.356Z,20.83
2023-05-04T11:57:39.245Z,20.94
2023-05-04T11:58:39.255Z,20.92
2023-05-04T11:59:39.408Z,20.93
2023-05-04T12:00:40.508Z,20.95
2023-05-04T12:01:39.477Z,20.96
2023-05-04T12:02:39.565Z,21.00
2023-05-04T12:03:53.608Z,21.01
2023-05-04T12:04:39.152Z,20.99
2023-05-04T12:05:38.979Z,21.02
2023-05-04T12:06:39.129Z,21.06
2023-05-04T12:07:39.141Z,21.11
2023-05-04T12:08:39.262Z,21.16
2023-05-04T12:09:39.293Z,21.20
2023-05-04T12:10:39.722Z,21.20
2023-05-04T12:11:39.360Z,21.22
2023-05-04T12:12:39.110Z,21.20
2023-05-04T12:13:39.061Z,21.24
2023-05-04T12:14:39.452Z,21.30
2023-05-04T12:15:39.618Z,21.38
2023-05-04T12:16:39.650Z,21.38
2023-05-04T12:17:39.784Z,21.41
2023-05-04T12:18:39.672Z,21.50
2023-05-04T12:19:39.636Z,21.51
2023-05-04T12:20:39.586Z,21.46
2023-05-04T12:21:39.514Z,21.41
2023-05-04T12:22:39.399Z,21.43
2023-05-04T12:23:39.779Z,21.44
2023-05-04T12:25:11.109Z,21.49
2023-05-04T12:25:54.857Z,21.54
2023-05-04T12:26:39.918Z,21.53
2023-05-04T12:27:39.674Z,21.54
2023-05-04T12:28:39.397Z,21.60
2023-05-04T12:29:39.042Z,21.66
2023-05-04T12:30:39.329Z,21.66
2023-05-04T12:31:41.061Z,21.71
2023-05-04T12:32:39.275Z,21.74
2023-05-04T12:33:39.901Z,21.78
2023-05-04T12:34:40.525Z,21.80
2023-05-04T12:35:39.646Z,21.80
2023-05-04T12:36:39.777Z,21.83
2023-05-04T12:37:40.455Z,21.86
2023-05-04T12:38:39.853Z,21.90
2023-05-04T12:39:39.824Z,21.84
2023-05-04T12:40:44.085Z,21.83
2023-05-04T12:41:39.331Z,21.83
2023-05-04T12:42:39.152Z,21.86
2023-05-04T12:43:38.961Z,21.84
2023-05-04T12:44:38.919Z,21.88
2023-05-04T12:45:40.028Z,21.96
2023-05-04T12:46:39.532Z,21.96
2023-05-04T12:47:39.703Z,22.02
2023-05-04T12:48:39.662Z,22.04
2023-05-04T12:49:40.089Z,22.10
2023-05-04T12:50:39.587Z,22.06
2023-05-04T12:51:39.737Z,22.04
2023-05-04T12:52:39.982Z,22.07
2023-05-04T12:53:39.330Z,22.07